Time;durP1;ratioP1;P1;durP2;ratioP2;P2;SDS_P1;SDS_P2;PMS_P1;PMS_P2;Temp;Humidity;BMP_temperature;BMP_pressure;BME280_temperature;BME280_humidity;BME280_pressure;Samples;Min_cycle;Max_cycle;Signal;HPM_P1;HPM_P2
2022/02/08 00:01:58;;;;;;;0.40;0.20;;;0.90;99.90;;;;;;5099965;28;20380;-73
2022/02/08 00:04:24;;;;;;;0.50;0.50;;;0.90;99.90;;;;;;5095806;28;20392;-73
2022/02/08 00:06:50;;;;;;;0.40;0.20;;;0.90;99.90;;;;;;5087786;28;20385;-73
2022/02/08 00:09:17;;;;;;;0.40;0.20;;;0.90;99.90;;;;;;5096925;28;20385;-73
2022/02/08 00:11:43;;;;;;;0.50;0.40;;;0.90;99.90;;;;;;5097057;28;20429;-73
2022/02/08 00:14:09;;;;;;;0.90;0.60;;;1.10;99.90;;;;;;5096045;28;20385;-73
2022/02/08 00:16:35;;;;;;;0.40;0.20;;;1.10;99.90;;;;;;5101214;28;20925;-73
2022/02/08 00:19:01;;;;;;;0.40;0.20;;;1.10;99.90;;;;;;5110155;28;20495;-73
2022/02/08 00:21:26;;;;;;;0.40;0.20;;;1.10;99.90;;;;;;5108091;28;20455;-73
2022/02/08 00:23:52;;;;;;;0.40;0.20;;;1.10;99.90;;;;;;5110688;28;20710;-72
2022/02/08 00:26:18;;;;;;;0.40;0.30;;;1.20;99.90;;;;;;5113488;28;20387;-73
2022/02/08 00:28:43;;;;;;;0.40;0.20;;;1.20;99.90;;;;;;5114349;28;20396;-74
2022/02/08 00:31:09;;;;;;;0.40;0.20;;;1.10;99.90;;;;;;5113965;28;20377;-73
2022/02/08 00:33:35;;;;;;;0.40;0.30;;;1.30;99.90;;;;;;5113136;28;20424;-73
2022/02/08 00:36:01;;;;;;;0.40;0.20;;;1.20;99.90;;;;;;5114001;28;20713;-73
2022/02/08 00:38:27;;;;;;;0.40;0.20;;;1.20;99.90;;;;;;5127943;27;20435;-73
2022/02/08 00:40:58;;;;;;;0.40;0.20;;;1.20;99.90;;;;;;5134377;27;20370;-73
2022/02/08 00:43:28;;;;;;;0.40;0.20;;;1.20;99.90;;;;;;5133771;27;20527;-74
2022/02/08 00:45:59;;;;;;;0.40;0.20;;;1.30;99.90;;;;;;5123071;27;20395;-73
2022/02/08 00:48:32;;;;;;;0.40;0.20;;;1.30;99.90;;;;;;5094899;28;20411;-74
2022/02/08 00:50:58;;;;;;;0.40;0.30;;;1.30;99.90;;;;;;5113742;28;20388;-73
2022/02/08 00:53:24;;;;;;;0.40;0.20;;;1.40;99.90;;;;;;5113213;28;20441;-73
2022/02/08 00:55:50;;;;;;;0.40;0.20;;;1.40;99.90;;;;;;5113611;28;20376;-73
2022/02/08 00:58:16;;;;;;;0.40;0.20;;;1.50;99.90;;;;;;5095328;28;20415;-73
2022/02/08 01:00:41;;;;;;;0.40;0.20;;;1.40;99.90;;;;;;5112773;28;20376;-73
2022/02/08 01:03:08;;;;;;;0.40;0.20;;;1.50;99.90;;;;;;5113241;28;20379;-73
2022/02/08 01:05:39;;;;;;;0.40;0.20;;;1.50;99.90;;;;;;5112549;28;20385;-74
2022/02/08 01:08:05;;;;;;;0.40;0.30;;;1.40;99.90;;;;;;5113611;28;20400;-73
2022/02/08 01:10:37;;;;;;;0.40;0.20;;;1.40;99.90;;;;;;5112853;28;20421;-73
2022/02/08 01:13:03;;;;;;;0.40;0.40;;;1.50;99.90;;;;;;5095943;28;20852;-73
2022/02/08 01:15:28;;;;;;;0.40;0.20;;;1.60;99.90;;;;;;5113196;28;20376;-72
2022/02/08 01:17:57;;;;;;;0.40;0.20;;;1.60;99.90;;;;;;5112344;28;20491;-73
2022/02/08 01:20:32;;;;;;;0.40;0.20;;;1.60;99.90;;;;;;5095009;28;20395;-72
2022/02/08 01:23:01;;;;;;;0.40;0.25;;;1.60;99.90;;;;;;5094296;28;20404;-73
2022/02/08 01:25:32;;;;;;;0.40;0.30;;;1.60;99.90;;;;;;5113329;28;20413;-72
2022/02/08 01:28:07;;;;;;;0.40;0.20;;;1.60;99.90;;;;;;5112177;28;20392;-72
2022/02/08 01:30:45;;;;;;;0.40;0.22;;;1.60;99.90;;;;;;5094929;28;20373;-72
2022/02/08 01:33:39;;;;;;;0.40;0.20;;;1.60;99.90;;;;;;5113100;28;20944;-72
2022/02/08 01:39:21;;;;;;;0.40;0.20;;;1.60;99.90;;;;;;5112795;28;20819;-73
2022/02/08 01:42:17;;;;;;;0.40;0.20;;;1.70;99.90;;;;;;5108370;28;20944;-73
2022/02/08 01:44:58;;;;;;;0.40;0.20;;;1.70;99.90;;;;;;5112318;28;20903;-73
2022/02/08 01:50:11;;;;;;;0.40;0.20;;;1.80;99.90;;;;;;5069596;28;20389;-73
2022/02/08 01:52:39;;;;;;;0.40;0.20;;;1.70;99.90;;;;;;5094091;28;20895;-73
2022/02/08 01:55:07;;;;;;;0.80;0.80;;;1.90;99.90;;;;;;5111731;28;20463;-73
2022/02/08 01:57:33;;;;;;;0.40;0.20;;;2.00;99.90;;;;;;5094039;28;20907;-73
2022/02/08 01:59:58;;;;;;;0.40;0.40;;;1.90;99.90;;;;;;5093907;28;20404;-73
2022/02/08 02:02:24;;;;;;;0.40;0.20;;;1.80;99.90;;;;;;5111954;28;20427;-73
2022/02/08 02:04:50;;;;;;;0.40;0.20;;;1.80;99.90;;;;;;5112674;28;20410;-73
2022/02/08 02:07:16;;;;;;;0.40;0.20;;;1.80;99.90;;;;;;5111251;28;20388;-73
2022/02/08 02:09:45;;;;;;;0.40;0.30;;;1.80;99.90;;;;;;5094076;28;20471;-72
2022/02/08 02:12:12;;;;;;;0.40;0.20;;;1.70;99.90;;;;;;5111364;28;20379;-73
2022/02/08 02:14:39;;;;;;;0.40;0.20;;;1.70;99.90;;;;;;5112240;28;20429;-73
2022/02/08 02:17:07;;;;;;;0.40;0.20;;;1.70;99.90;;;;;;5111985;28;20419;-73
2022/02/08 02:19:33;;;;;;;0.40;0.20;;;1.80;99.90;;;;;;5111427;28;20373;-72
2022/02/08 02:22:00;;;;;;;0.40;0.20;;;1.70;99.90;;;;;;5112232;28;20384;-72
2022/02/08 02:24:26;;;;;;;0.40;0.20;;;1.70;99.90;;;;;;5111140;28;20419;-72
2022/02/08 02:26:52;;;;;;;0.40;0.20;;;1.60;99.90;;;;;;5111569;28;20400;-73
2022/02/08 02:29:22;;;;;;;0.40;0.20;;;1.60;99.90;;;;;;5092884;28;20962;-73
2022/02/08 02:31:48;;;;;;;0.40;0.20;;;1.60;99.90;;;;;;5093834;28;20748;-73
2022/02/08 02:34:19;;;;;;;0.40;0.20;;;1.50;99.90;;;;;;5111217;28;20385;-73
2022/02/08 02:36:45;;;;;;;0.40;0.20;;;1.60;99.90;;;;;;5111324;28;20384;-72
2022/02/08 02:39:12;;;;;;;0.40;0.20;;;1.60;99.90;;;;;;5111418;28;20424;-72
2022/02/08 02:41:43;;;;;;;0.40;0.20;;;1.60;99.90;;;;;;5093156;28;20396;-72
2022/02/08 02:44:12;;;;;;;0.50;0.50;;;1.50;99.90;;;;;;5093319;28;20416;-72
2022/02/08 02:46:38;;;;;;;0.40;0.20;;;1.40;99.90;;;;;;5110124;28;20736;-73
2022/02/08 02:49:05;;;;;;;0.40;0.20;;;1.40;99.90;;;;;;5111087;28;20395;-73
2022/02/08 02:51:32;;;;;;;0.40;0.20;;;1.50;99.90;;;;;;5110828;28;20377;-74
2022/02/08 02:53:59;;;;;;;1.30;0.60;;;1.30;99.90;;;;;;5111458;28;20433;-73
2022/02/08 02:56:25;;;;;;;0.40;0.20;;;1.40;99.90;;;;;;5111410;28;20385;-73
2022/02/08 02:58:57;;;;;;;0.40;0.20;;;1.40;99.90;;;;;;5110232;28;20411;-73
2022/02/08 03:01:36;;;;;;;0.40;0.20;;;1.40;99.90;;;;;;5111230;28;20383;-73
2022/02/08 03:20:15;;;;;;;0.40;0.20;;;1.10;99.90;;;;;;5111241;28;20455;-73
2022/02/08 03:22:40;;;;;;;0.40;0.20;;;1.20;99.90;;;;;;5110751;28;20827;-74
2022/02/08 03:25:06;;;;;;;0.43;0.30;;;1.10;99.90;;;;;;5110261;28;20855;-73
2022/02/08 03:27:32;;;;;;;0.40;0.20;;;1.10;99.90;;;;;;5091638;28;20475;-73
2022/02/08 03:29:57;;;;;;;0.40;0.20;;;1.10;99.90;;;;;;5091967;28;20395;-73
2022/02/08 03:32:24;;;;;;;0.40;0.20;;;1.10;99.90;;;;;;5110669;28;20377;-72
2022/02/08 03:34:49;;;;;;;0.40;0.20;;;1.10;99.90;;;;;;5092555;28;20464;-72
2022/02/08 03:37:16;;;;;;;0.40;0.20;;;1.10;99.90;;;;;;5109353;28;21112;-73
2022/02/08 03:39:44;;;;;;;0.40;0.20;;;1.10;99.90;;;;;;5111167;28;20437;-73
2022/02/08 03:42:20;;;;;;;0.40;0.20;;;1.00;99.90;;;;;;5110064;28;20379;-73
2022/02/08 03:44:48;;;;;;;0.40;0.20;;;1.00;99.90;;;;;;5110689;28;20408;-73
2022/02/08 03:47:15;;;;;;;0.40;0.20;;;1.00;99.90;;;;;;5110118;28;20381;-73
2022/02/08 03:49:41;;;;;;;0.40;0.20;;;1.10;99.90;;;;;;5110674;28;20394;-73
2022/02/08 03:52:07;;;;;;;0.40;0.20;;;1.20;99.90;;;;;;5109870;28;20376;-74
2022/02/08 03:54:34;;;;;;;0.40;0.20;;;1.30;99.90;;;;;;5092342;28;20555;-73
2022/02/08 03:57:00;;;;;;;0.40;0.20;;;1.30;99.90;;;;;;5110675;28;20377;-73
2022/02/08 03:59:26;;;;;;;0.40;0.20;;;1.30;99.90;;;;;;5111210;28;20391;-72
2022/02/08 04:07:03;;;;;;;0.40;0.20;;;1.50;99.90;;;;;;5114822;28;20395;-72
2022/02/08 04:09:29;;;;;;;0.40;0.20;;;1.50;99.90;;;;;;5114144;28;20445;-73
2022/02/08 04:12:02;;;;;;;0.40;0.20;;;1.40;99.90;;;;;;5114413;28;20384;-73
2022/02/08 04:17:15;;;;;;;0.40;0.20;;;1.40;99.90;;;;;;5114494;28;20388;-73
2022/02/08 04:39:17;;;;;;;0.40;0.20;;;1.40;99.90;;;;;;5113207;28;20432;-73
2022/02/08 04:41:56;;;;;;;0.40;0.20;;;1.30;99.90;;;;;;5113662;28;20400;-73
2022/02/08 04:44:30;;;;;;;0.40;0.20;;;1.40;99.90;;;;;;5114275;28;20368;-72
2022/02/08 04:49:33;;;;;;;0.40;0.20;;;1.40;99.90;;;;;;5114158;28;20376;-73
2022/02/08 04:52:03;;;;;;;0.40;0.20;;;1.50;99.90;;;;;;5095118;28;20420;-73
2022/02/08 05:45:25;;;;;;;0.40;0.20;;;1.50;99.90;;;;;;5112991;28;20383;-73
2022/02/08 05:47:51;;;;;;;0.40;0.20;;;1.60;99.90;;;;;;5113295;28;20391;-73
2022/02/08 05:53:02;;;;;;;0.50;0.50;;;1.50;99.90;;;;;;5113271;28;20376;-73
2022/02/08 05:55:28;;;;;;;0.40;0.20;;;1.50;99.90;;;;;;5112190;28;20376;-73
2022/02/08 05:57:56;;;;;;;0.40;0.20;;;1.50;99.90;;;;;;5094268;28;20450;-72
2022/02/08 06:00:26;;;;;;;0.40;0.20;;;1.50;99.90;;;;;;5093836;28;20388;-73
2022/02/08 06:02:56;;;;;;;0.40;0.20;;;1.50;99.90;;;;;;5113220;28;20368;-73
2022/02/08 06:05:23;;;;;;;0.40;0.20;;;1.60;99.90;;;;;;5112003;28;20372;-74
2022/02/08 06:07:49;;;;;;;0.40;0.20;;;1.60;99.90;;;;;;5112733;28;20427;-73
2022/02/08 06:10:15;;;;;;;0.40;0.20;;;1.70;99.90;;;;;;5112406;28;20892;-73
2022/02/08 06:12:47;;;;;;;0.40;0.20;;;1.70;99.90;;;;;;5111422;28;20517;-73
2022/02/08 06:15:16;;;;;;;0.40;0.20;;;1.70;99.90;;;;;;5077544;28;20440;-73
2022/02/08 06:17:41;;;;;;;0.40;0.20;;;1.70;99.90;;;;;;5111650;28;20430;-74
2022/02/08 06:20:08;;;;;;;0.40;0.30;;;1.70;99.90;;;;;;5112430;28;20852;-73
2022/02/08 06:22:35;;;;;;;0.60;0.60;;;1.90;99.90;;;;;;5110790;28;20766;-73
2022/02/08 06:25:05;;;;;;;0.40;0.20;;;1.80;99.90;;;;;;5112361;28;20377;-73
2022/02/08 06:27:31;;;;;;;0.40;0.20;;;1.80;99.90;;;;;;5111846;28;20380;-73
2022/02/08 06:29:58;;;;;;;0.40;0.20;;;1.80;99.90;;;;;;5093289;28;20478;-74
2022/02/08 06:32:26;;;;;;;0.40;0.20;;;1.90;99.90;;;;;;5111981;28;20398;-73
2022/02/08 06:34:55;;;;;;;0.40;0.20;;;1.80;99.90;;;;;;5091815;28;20427;-74
2022/02/08 06:37:22;;;;;;;0.40;0.20;;;1.90;99.90;;;;;;5111159;28;20776;-74
2022/02/08 06:39:48;;;;;;;0.40;0.20;;;1.90;99.90;;;;;;5093689;28;20749;-74
2022/02/08 06:42:13;;;;;;;0.40;0.20;;;2.00;99.90;;;;;;5111747;28;20402;-74
2022/02/08 06:44:39;;;;;;;0.40;0.20;;;1.90;99.90;;;;;;5111993;28;20414;-74
2022/02/08 06:47:06;;;;;;;0.40;0.20;;;2.00;99.90;;;;;;5093433;28;20710;-73
2022/02/08 06:49:32;;;;;;;0.40;0.20;;;2.10;99.90;;;;;;5111848;28;20384;-73
2022/02/08 06:51:57;;;;;;;0.40;0.20;;;2.00;99.90;;;;;;5110985;28;20807;-74
2022/02/08 06:54:23;;;;;;;0.40;0.20;;;2.00;99.90;;;;;;5111574;28;20459;-74
2022/02/08 06:56:49;;;;;;;0.40;0.20;;;2.00;99.90;;;;;;5111322;28;20376;-75
2022/02/08 06:59:17;;;;;;;0.40;0.20;;;2.10;99.90;;;;;;5111203;28;20495;-74
2022/02/08 07:01:44;;;;;;;0.40;0.20;;;2.10;99.90;;;;;;5093325;28;20480;-74
2022/02/08 07:04:11;;;;;;;0.40;0.30;;;2.20;99.90;;;;;;5110801;28;20483;-74
2022/02/08 07:06:37;;;;;;;0.40;0.20;;;2.20;99.90;;;;;;5093517;28;20376;-74
2022/02/08 07:09:03;;;;;;;0.40;0.20;;;2.30;99.90;;;;;;5110591;28;20395;-74
2022/02/08 07:11:29;;;;;;;0.47;0.35;;;2.30;99.90;;;;;;5111608;28;20384;-73
2022/02/08 07:13:56;;;;;;;0.40;0.20;;;2.30;99.90;;;;;;5093219;28;20743;-73
2022/02/08 07:16:22;;;;;;;0.40;0.20;;;2.30;99.90;;;;;;5110546;28;20385;-74
2022/02/08 07:18:48;;;;;;;0.40;0.20;;;2.30;99.90;;;;;;5110811;28;20458;-74
2022/02/08 07:21:14;;;;;;;0.40;0.20;;;2.30;99.90;;;;;;5110279;28;20433;-74
2022/02/08 07:23:40;;;;;;;0.40;0.20;;;2.40;99.90;;;;;;5092620;28;20718;-73
2022/02/08 07:26:06;;;;;;;0.40;0.20;;;2.60;99.90;;;;;;5110564;28;20391;-74
2022/02/08 07:28:39;;;;;;;0.40;0.30;;;2.70;99.90;;;;;;5110987;28;20437;-73
2022/02/08 07:31:13;;;;;;;0.40;0.20;;;2.70;99.90;;;;;;5111256;28;20368;-73
2022/02/08 07:33:42;;;;;;;0.40;0.30;;;2.50;99.90;;;;;;5111497;28;20728;-73
2022/02/08 07:36:23;;;;;;;0.40;0.20;;;2.50;99.90;;;;;;5111185;28;20373;-74
2022/02/08 07:38:50;;;;;;;0.40;0.20;;;2.60;99.90;;;;;;5111168;28;20519;-73
2022/02/08 07:43:42;;;;;;;0.40;0.20;;;2.80;99.90;;;;;;5111490;28;20446;-73
2022/02/08 07:46:07;;;;;;;0.40;0.30;;;2.70;99.90;;;;;;5111161;28;20412;-74
2022/02/08 07:48:33;;;;;;;2.20;0.70;;;2.70;99.90;;;;;;5110482;28;20434;-74
2022/02/08 07:50:59;;;;;;;0.40;0.20;;;2.70;99.90;;;;;;5111122;28;20852;-74
2022/02/08 07:53:27;;;;;;;0.40;0.20;;;2.60;99.90;;;;;;5109983;28;20419;-74
2022/02/08 07:55:54;;;;;;;0.40;0.20;;;2.70;99.90;;;;;;5111004;28;20387;-73
2022/02/08 07:58:20;;;;;;;0.40;0.20;;;2.70;99.90;;;;;;5092715;28;20843;-73
2022/02/08 08:00:46;;;;;;;0.60;0.60;;;2.70;99.90;;;;;;5110428;28;20451;-73
2022/02/08 08:03:12;;;;;;;0.40;0.20;;;2.80;99.90;;;;;;5111008;28;20391;-72
2022/02/08 08:05:40;;;;;;;0.40;0.20;;;2.80;99.90;;;;;;5109764;28;20856;-74
2022/02/08 08:08:07;;;;;;;0.80;0.60;;;2.80;99.90;;;;;;5110604;28;20787;-72
2022/02/08 08:10:33;;;;;;;0.40;0.20;;;2.90;99.90;;;;;;5110521;28;20737;-73
2022/02/08 08:13:01;;;;;;;0.40;0.20;;;3.00;99.90;;;;;;5110225;28;20392;-73
2022/02/08 08:15:41;;;;;;;0.40;0.20;;;3.10;99.90;;;;;;5110793;28;20483;-72
2022/02/08 08:18:36;;;;;;;0.40;0.20;;;3.10;99.90;;;;;;5110721;28;20407;-73
2022/02/08 08:21:02;;;;;;;0.40;0.20;;;3.10;99.90;;;;;;5110533;28;20373;-73
2022/02/08 08:23:28;;;;;;;0.40;0.20;;;3.20;99.90;;;;;;5110817;28;20470;-73
2022/02/08 08:25:54;;;;;;;0.40;0.20;;;3.10;99.90;;;;;;5110033;28;20365;-73
2022/02/08 08:28:20;;;;;;;0.40;0.20;;;3.10;99.90;;;;;;5110620;28;20829;-74
2022/02/08 08:30:46;;;;;;;0.40;0.35;;;3.20;99.90;;;;;;5110516;28;20380;-73
2022/02/08 08:33:11;;;;;;;0.40;0.20;;;3.30;99.90;;;;;;5110435;28;20383;-73
2022/02/08 08:35:39;;;;;;;0.40;0.20;;;3.40;99.90;;;;;;5110702;28;20387;-73
2022/02/08 08:38:07;;;;;;;0.40;0.30;;;3.40;99.90;;;;;;5109741;28;20885;-73
2022/02/08 08:40:51;;;;;;;0.40;0.20;;;3.50;99.90;;;;;;5110365;28;20465;-73
2022/02/08 08:53:32;;;;;;;0.40;0.20;;;3.70;99.90;;;;;;5114118;28;20404;-73
2022/02/08 08:55:58;;;;;;;0.40;0.40;;;3.70;99.90;;;;;;5113317;28;20413;-73
2022/02/08 08:58:24;;;;;;;0.40;0.28;;;3.80;99.90;;;;;;5095331;28;20408;-73
2022/02/08 09:00:50;;;;;;;0.40;0.20;;;3.90;99.90;;;;;;5114059;28;20373;-73
2022/02/08 09:03:16;;;;;;;0.40;0.23;;;4.10;99.90;;;;;;5113192;28;20381;-73
2022/02/08 09:05:41;;;;;;;0.40;0.20;;;4.20;99.90;;;;;;5095729;28;20438;-73
2022/02/08 09:08:08;;;;;;;0.40;0.20;;;4.30;99.90;;;;;;5113129;28;20392;-73
2022/02/08 09:10:48;;;;;;;0.40;0.20;;;4.70;99.90;;;;;;5113561;28;20372;-73
2022/02/08 09:13:28;;;;;;;0.40;0.30;;;4.70;99.90;;;;;;5112629;28;20365;-73
2022/02/08 09:16:08;;;;;;;0.40;0.30;;;4.90;99.90;;;;;;5113581;28;20369;-73
2022/02/08 09:21:41;;;;;;;0.40;0.20;;;5.20;99.90;;;;;;5112989;28;20380;-73
2022/02/08 09:27:01;;;;;;;0.40;0.30;;;5.60;99.20;;;;;;5113380;28;20381;-73
2022/02/08 09:29:37;;;;;;;3.10;0.70;;;5.60;98.60;;;;;;5112716;28;20396;-73
2022/02/08 09:32:14;;;;;;;0.40;0.20;;;5.70;98.50;;;;;;5113875;28;20376;-73
2022/02/08 09:34:42;;;;;;;0.45;0.32;;;5.70;98.00;;;;;;5113167;28;20402;-73
2022/02/08 09:37:14;;;;;;;0.40;0.20;;;5.80;98.30;;;;;;5113148;28;20396;-73
2022/02/08 09:39:41;;;;;;;0.40;0.20;;;5.80;98.00;;;;;;5112735;28;20892;-73
2022/02/08 09:42:08;;;;;;;0.40;0.40;;;5.90;98.50;;;;;;5113404;28;20372;-73
2022/02/08 09:44:35;;;;;;;0.40;0.20;;;6.10;97.10;;;;;;5111340;28;20434;-73
2022/02/08 09:47:06;;;;;;;0.40;0.20;;;6.10;97.70;;;;;;5112607;28;20388;-73
2022/02/08 09:49:55;;;;;;;0.40;0.20;;;6.30;96.30;;;;;;5112445;28;20460;-73
2022/02/08 09:52:23;;;;;;;0.40;0.20;;;6.40;96.70;;;;;;5112972;28;20373;-72
2022/02/08 09:54:50;;;;;;;0.40;0.20;;;6.50;96.50;;;;;;5112182;28;20373;-73
2022/02/08 09:57:16;;;;;;;0.40;0.32;;;6.70;95.30;;;;;;5112774;28;20380;-72
2022/02/08 09:59:43;;;;;;;0.40;0.20;;;6.70;93.80;;;;;;5112185;28;20430;-73
2022/02/08 10:02:39;;;;;;;;;;;;;;;;;;;;;
2022/02/08 10:05:08;;;;;;;0.40;0.20;;;6.90;94.70;;;;;;5108113;28;20384;-72
2022/02/08 10:07:37;;;;;;;0.80;0.80;;;7.00;94.30;;;;;;5112290;28;20400;-73
2022/02/08 10:10:29;;;;;;;0.40;0.20;;;7.10;93.00;;;;;;5112323;28;20395;-72
2022/02/08 10:13:32;;;;;;;0.40;0.20;;;7.20;93.30;;;;;;5009206;28;20476;-73
2022/02/08 10:23:31;;;;;;;0.40;0.20;;;7.40;92.90;;;;;;5063303;28;20392;-74
2022/02/08 10:40:05;;;;;;;0.40;0.20;;;8.10;92.10;;;;;;5096867;28;20395;-74
2022/02/08 10:42:32;;;;;;;0.40;0.20;;;8.20;92.00;;;;;;5094757;28;20967;-74
2022/02/08 10:44:59;;;;;;;0.40;0.20;;;8.50;91.60;;;;;;5111554;28;20376;-74
2022/02/08 10:47:41;;;;;;;0.40;0.20;;;8.80;90.60;;;;;;5111291;28;20441;-75
2022/02/08 10:50:09;;;;;;;0.40;0.20;;;9.00;90.30;;;;;;5111344;28;20387;-75
2022/02/08 10:52:38;;;;;;;0.40;0.20;;;9.20;90.40;;;;;;5093699;28;20730;-72
2022/02/08 10:55:19;;;;;;;0.40;0.20;;;9.50;88.40;;;;;;5111524;28;20373;-74
2022/02/08 10:57:55;;;;;;;0.40;0.20;;;9.60;87.10;;;;;;5111724;28;20457;-73
2022/02/08 11:00:49;;;;;;;0.40;0.20;;;9.50;85.00;;;;;;5111084;28;20520;-74
2022/02/08 11:03:14;;;;;;;0.43;0.32;;;9.50;84.50;;;;;;5110647;28;20423;-73
2022/02/08 11:05:56;;;;;;;0.40;0.20;;;9.60;86.50;;;;;;5093816;28;20528;-73
2022/02/08 11:16:09;;;;;;;0.75;0.75;;;9.80;82.50;;;;;;5111607;28;20429;-73
2022/02/08 11:18:58;;;;;;;0.40;0.20;;;10.10;80.00;;;;;;5110240;28;20412;-73
2022/02/08 11:26:30;;;;;;;0.40;0.20;;;10.80;74.60;;;;;;5111167;28;20868;-75
2022/02/08 11:29:07;;;;;;;0.40;0.30;;;10.90;75.10;;;;;;5111763;28;20412;-73
2022/02/08 11:31:38;;;;;;;0.40;0.40;;;11.30;74.10;;;;;;5110992;28;20463;-74
2022/02/08 11:47:35;;;;;;;0.40;0.30;;;15.00;58.50;;;;;;5111406;28;20380;-75
2022/02/08 11:50:19;;;;;;;0.40;0.30;;;14.40;57.50;;;;;;5110560;28;20429;-73
2022/02/08 11:53:09;;;;;;;0.40;0.30;;;14.50;57.70;;;;;;5110278;28;20381;-74
2022/02/08 11:56:00;;;;;;;0.40;0.22;;;14.70;57.10;;;;;;5110845;28;20467;-75
2022/02/08 11:58:34;;;;;;;0.40;0.20;;;14.80;56.20;;;;;;5096422;28;20431;-75
2022/02/08 12:01:06;;;;;;;0.40;0.30;;;14.80;54.70;;;;;;5110034;28;20936;-75
2022/02/08 12:09:05;;;;;;;0.40;0.20;;;15.30;54.90;;;;;;5110009;28;20419;-74
2022/02/08 12:31:24;;;;;;;0.40;0.20;;;15.60;52.40;;;;;;5090388;28;20809;-74
2022/02/08 13:01:35;;;;;;;0.40;0.30;;;15.20;54.30;;;;;;5114078;28;20874;-74
2022/02/08 13:04:21;;;;;;;0.40;0.20;;;15.30;53.70;;;;;;5114106;28;20388;-74
2022/02/08 14:17:41;;;;;;;0.40;0.30;;;14.70;58.00;;;;;;5112201;28;20380;-73
2022/02/08 14:20:42;;;;;;;0.40;0.20;;;14.60;57.20;;;;;;5112082;28;20381;-73
2022/02/08 14:25:47;;;;;;;0.40;0.20;;;14.90;57.30;;;;;;5112345;28;20419;-72
2022/02/08 14:33:49;;;;;;;0.40;0.20;;;14.50;58.40;;;;;;5111203;28;20373;-72
2022/02/08 14:57:36;;;;;;;0.40;0.20;;;15.20;57.80;;;;;;5091334;28;20424;-73
2022/02/08 15:08:40;;;;;;;0.40;0.30;;;12.10;63.40;;;;;;5090529;28;20386;-73
2022/02/08 15:11:09;;;;;;;0.93;0.87;;;11.90;64.60;;;;;;5091405;28;20889;-73
2022/02/08 15:13:40;;;;;;;0.40;0.20;;;11.90;65.20;;;;;;5073122;28;20742;-73
2022/02/08 15:18:37;;;;;;;0.40;0.20;;;12.00;63.90;;;;;;5091151;28;20433;-73
2022/02/08 15:21:05;;;;;;;0.40;0.30;;;12.00;65.10;;;;;;5090279;28;20455;-73
2022/02/08 15:23:31;;;;;;;0.40;0.30;;;12.10;65.20;;;;;;5073114;28;20388;-73
2022/02/08 15:25:59;;;;;;;0.40;0.30;;;12.00;65.60;;;;;;5090218;28;20389;-74
2022/02/08 15:28:29;;;;;;;0.40;0.30;;;12.00;66.60;;;;;;5089752;28;20750;-73
2022/02/08 15:30:56;;;;;;;0.40;0.30;;;11.80;66.00;;;;;;5090203;28;20383;-73
2022/02/08 15:33:23;;;;;;;0.40;0.30;;;11.80;66.80;;;;;;5090740;28;20394;-73
2022/02/08 15:35:49;;;;;;;0.40;0.30;;;11.80;66.90;;;;;;5090257;28;20390;-74
2022/02/08 15:38:15;;;;;;;1.60;1.30;;;11.80;67.20;;;;;;5090261;28;20817;-73
2022/02/08 15:40:41;;;;;;;0.40;0.30;;;12.50;65.80;;;;;;5089651;28;20911;-73
2022/02/08 15:43:08;;;;;;;0.40;0.20;;;12.40;66.40;;;;;;5071809;28;20386;-74
2022/02/08 15:45:44;;;;;;;0.40;0.30;;;12.00;66.80;;;;;;5099054;28;20729;-73
2022/02/08 15:48:13;;;;;;;0.40;0.20;;;12.00;67.30;;;;;;5110348;28;20479;-73
2022/02/08 15:50:54;;;;;;;0.40;0.30;;;11.60;67.80;;;;;;5110985;28;20372;-74
2022/02/08 16:08:47;;;;;;;0.40;0.30;;;10.70;74.10;;;;;;5114840;28;20416;-73
2022/02/08 16:13:50;;;;;;;2.30;0.70;;;10.10;79.00;;;;;;5115194;28;20801;-73
2022/02/08 16:18:56;;;;;;;0.40;0.30;;;9.70;87.80;;;;;;5115183;28;20439;-73
2022/02/08 16:29:01;;;;;;;0.40;0.20;;;8.80;95.20;;;;;;5114647;28;20406;-73
2022/02/08 16:53:40;;;;;;;0.40;0.40;;;7.70;99.90;;;;;;5093080;28;20382;-72
2022/02/08 17:01:37;;;;;;;0.40;0.30;;;7.40;99.90;;;;;;5068661;28;20396;-72
2022/02/08 17:04:08;;;;;;;0.40;0.20;;;7.30;99.90;;;;;;5093452;28;20381;-73
2022/02/08 17:06:34;;;;;;;0.80;0.55;;;7.10;99.90;;;;;;5092147;28;20386;-73
2022/02/08 17:09:07;;;;;;;0.70;0.70;;;7.20;99.90;;;;;;5093759;28;20440;-73
2022/02/08 17:11:57;;;;;;;0.40;0.30;;;7.10;99.90;;;;;;5092741;28;20404;-74
2022/02/08 17:36:46;;;;;;;0.40;0.40;;;6.60;99.90;;;;;;5092880;28;20455;-74
2022/02/08 17:46:49;;;;;;;0.40;0.40;;;6.30;99.90;;;;;;5050114;28;20391;-73
2022/02/08 17:49:15;;;;;;;0.40;0.20;;;6.20;99.90;;;;;;5087574;28;20413;-73
2022/02/08 17:51:41;;;;;;;0.40;0.30;;;6.20;99.90;;;;;;5092682;28;20382;-74
2022/02/08 17:54:07;;;;;;;0.40;0.20;;;6.20;99.90;;;;;;5091358;28;21253;-74
2022/02/08 17:56:32;;;;;;;1.50;0.60;;;6.10;99.90;;;;;;5092171;28;20378;-74
2022/02/08 17:58:58;;;;;;;0.45;0.30;;;6.00;99.90;;;;;;5091505;28;20475;-73
2022/02/08 18:01:25;;;;;;;0.40;0.20;;;5.80;99.90;;;;;;5092561;28;20378;-73
2022/02/08 18:03:51;;;;;;;0.40;0.20;;;5.80;99.90;;;;;;5074316;28;20392;-73
2022/02/08 18:06:18;;;;;;;0.40;0.30;;;5.80;99.90;;;;;;5092187;28;20387;-73
2022/02/08 18:08:44;;;;;;;0.40;0.20;;;5.80;99.90;;;;;;5073821;28;20386;-73
2022/02/08 18:11:10;;;;;;;0.40;0.20;;;5.80;99.90;;;;;;5073429;28;20440;-74
2022/02/08 18:13:40;;;;;;;0.40;0.30;;;5.80;99.90;;;;;;5091921;28;20385;-73
2022/02/08 18:16:06;;;;;;;0.40;0.30;;;5.60;99.90;;;;;;5091445;28;20381;-73
2022/02/08 18:18:39;;;;;;;0.40;0.30;;;5.60;99.90;;;;;;5091072;28;20426;-73
2022/02/08 18:21:19;;;;;;;0.40;0.20;;;5.50;99.90;;;;;;5091485;28;20374;-73
2022/02/08 19:05:23;;;;;;;0.40;0.20;;;4.90;99.90;;;;;;5111089;28;20377;-74
2022/02/08 19:20:08;;;;;;;0.60;0.50;;;4.50;99.90;;;;;;5112024;28;20457;-74
2022/02/08 19:22:34;;;;;;;0.40;0.20;;;4.50;99.90;;;;;;5093902;28;20433;-74
2022/02/08 19:25:00;;;;;;;1.00;0.90;;;4.50;99.90;;;;;;5111170;28;20388;-73
2022/02/08 19:27:25;;;;;;;0.60;0.60;;;4.50;99.90;;;;;;5110721;28;20917;-75
2022/02/08 19:29:51;;;;;;;0.40;0.30;;;4.50;99.90;;;;;;5111033;28;20377;-74
2022/02/08 19:32:17;;;;;;;0.40;0.40;;;4.40;99.90;;;;;;5111149;28;20863;-74
2022/02/08 19:34:46;;;;;;;0.40;0.20;;;4.40;99.90;;;;;;5109578;28;20395;-74
2022/02/08 19:37:14;;;;;;;0.40;0.30;;;4.30;99.90;;;;;;5092925;28;20453;-74
2022/02/08 19:39:43;;;;;;;1.00;1.00;;;4.30;99.90;;;;;;5109448;28;20652;-74
2022/02/08 19:42:11;;;;;;;0.80;0.80;;;4.30;99.90;;;;;;5111024;28;20377;-74
2022/02/08 19:44:37;;;;;;;0.40;0.30;;;4.30;99.90;;;;;;5110280;28;20369;-73
2022/02/08 19:47:05;;;;;;;0.40;0.20;;;4.20;99.90;;;;;;5111096;28;20381;-73
2022/02/08 19:49:31;;;;;;;0.40;0.20;;;4.20;99.90;;;;;;5092050;28;20399;-73
2022/02/08 19:51:58;;;;;;;0.40;0.30;;;4.10;99.90;;;;;;5111213;28;20385;-73
2022/02/08 19:54:28;;;;;;;0.40;0.30;;;4.00;99.90;;;;;;5111178;28;20694;-74
2022/02/08 19:59:33;;;;;;;0.40;0.30;;;4.00;99.90;;;;;;5110920;28;20408;-73
2022/02/08 20:02:07;;;;;;;0.40;0.30;;;3.90;99.90;;;;;;5111301;28;20438;-74
2022/02/08 20:04:33;;;;;;;0.40;0.30;;;4.00;99.90;;;;;;5110487;28;20712;-75
2022/02/08 20:07:00;;;;;;;0.40;0.20;;;3.90;99.90;;;;;;5092745;28;20388;-74
2022/02/08 20:09:27;;;;;;;0.40;0.22;;;3.80;99.90;;;;;;5110978;28;20380;-74
2022/02/08 20:11:53;;;;;;;0.40;0.20;;;3.70;99.90;;;;;;5110159;28;20573;-74
2022/02/08 20:14:20;;;;;;;0.50;0.50;;;3.60;99.90;;;;;;5092245;28;20376;-74
2022/02/08 20:16:46;;;;;;;0.40;0.20;;;3.70;99.90;;;;;;5091764;28;20774;-74
2022/02/08 20:19:15;;;;;;;0.40;0.22;;;3.70;99.90;;;;;;5110785;28;20431;-73
2022/02/08 20:21:45;;;;;;;0.40;0.20;;;3.70;99.90;;;;;;5110213;28;20733;-74
2022/02/08 20:24:14;;;;;;;0.70;0.70;;;3.70;99.90;;;;;;5110611;28;20376;-74
2022/02/08 20:29:27;;;;;;;0.40;0.20;;;3.60;99.90;;;;;;5110980;28;20387;-74
2022/02/08 20:31:54;;;;;;;0.40;0.30;;;3.50;99.90;;;;;;5109923;28;20385;-74
2022/02/08 20:34:22;;;;;;;5.30;0.80;;;3.50;99.90;;;;;;5110617;28;20377;-73
2022/02/08 20:36:49;;;;;;;0.70;0.70;;;3.50;99.90;;;;;;5109610;28;20376;-73
2022/02/08 20:39:16;;;;;;;0.40;0.30;;;3.40;99.90;;;;;;5110117;28;20422;-73
2022/02/08 20:41:43;;;;;;;0.40;0.40;;;3.50;99.90;;;;;;5111006;28;20431;-73
2022/02/08 20:44:14;;;;;;;1.00;0.90;;;3.50;99.90;;;;;;5114402;28;20368;-73
2022/02/08 20:46:43;;;;;;;0.80;0.80;;;3.30;99.90;;;;;;5113890;28;20388;-74
2022/02/08 20:49:09;;;;;;;0.70;0.60;;;3.30;99.90;;;;;;5095851;28;20400;-73
2022/02/08 20:51:35;;;;;;;0.40;0.30;;;3.30;99.90;;;;;;5095265;28;20388;-73
2022/02/08 20:54:05;;;;;;;0.50;0.50;;;3.40;99.90;;;;;;5113212;28;20411;-73
2022/02/08 20:56:36;;;;;;;0.40;0.30;;;3.30;99.90;;;;;;5114014;28;20455;-73
2022/02/08 20:59:08;;;;;;;0.40;0.20;;;3.30;99.90;;;;;;5095028;28;20424;-74
2022/02/08 21:01:39;;;;;;;0.40;0.20;;;3.30;99.90;;;;;;5113996;28;20426;-72
2022/02/08 21:04:40;;;;;;;0.40;0.30;;;3.20;99.90;;;;;;5095120;28;20430;-73
2022/02/08 21:06:54;;;;;;;0.73;0.73;;;3.30;99.90;;;;;;5112194;28;20476;-73
2022/02/08 21:09:22;;;;;;;0.80;0.80;;;3.30;99.90;;;;;;5114185;28;20396;-72
2022/02/08 21:11:52;;;;;;;0.50;0.50;;;3.20;99.90;;;;;;5113145;28;20380;-74